createdAt,value
2019-02-05T19:49:21.397Z,99.90
2019-02-05T19:54:18.697Z,99.90
2019-02-05T19:59:22.343Z,99.90
2019-02-05T20:04:27.596Z,99.90
2019-02-05T20:09:31.253Z,99.90
2019-02-05T20:14:35.594Z,99.90
2019-02-05T20:19:39.440Z,99.90
2019-02-05T20:24:43.024Z,99.90
2019-02-05T20:29:46.768Z,99.90
2019-02-05T20:34:51.258Z,99.40
2019-02-05T20:39:55.110Z,98.90
2019-02-05T20:44:59.023Z,99.50
2019-02-05T20:50:02.659Z,99.20
2019-02-05T20:55:09.576Z,99.70
2019-02-05T21:00:28.348Z,99.90
2019-02-05T21:05:32.341Z,99.90
2019-02-05T21:10:37.797Z,99.90
2019-02-05T21:15:41.543Z,99.90
2019-02-05T21:20:45.805Z,99.90
2019-02-05T21:25:50.359Z,99.90
2019-02-05T21:30:54.670Z,99.90
2019-02-05T21:35:58.670Z,99.90
2019-02-05T21:41:02.284Z,99.90
2019-02-05T21:46:06.238Z,99.20
2019-02-05T21:51:09.946Z,99.20
2019-02-05T21:56:14.206Z,98.70
2019-02-05T22:01:18.393Z,98.40
2019-02-05T22:06:22.063Z,97.90
2019-02-05T22:11:25.884Z,97.70
2019-02-05T22:16:29.466Z,97.30
2019-02-05T22:21:32.961Z,97.10
2019-02-05T22:26:36.700Z,96.70
2019-02-05T22:31:41.035Z,96.90
2019-02-05T22:36:44.961Z,96.60
2019-02-05T22:41:48.548Z,96.90
2019-02-05T22:46:52.116Z,97.50
2019-02-05T22:51:55.703Z,97.90
2019-02-05T22:56:59.279Z,98.70
2019-02-05T23:02:03.318Z,98.20
2019-02-05T23:07:10.253Z,98.10
2019-02-05T23:12:22.798Z,98.30
2019-02-05T23:17:27.033Z,98.20
2019-02-05T23:22:30.636Z,98.40
2019-02-05T23:27:34.286Z,98.40
2019-02-05T23:32:37.924Z,98.40
2019-02-05T23:37:43.316Z,98.40
2019-02-05T23:42:46.803Z,98.50
2019-02-05T23:47:50.572Z,98.50
2019-02-05T23:52:54.070Z,98.70
2019-02-05T23:57:57.828Z,98.80
